Time;durP1;ratioP1;P1;durP2;ratioP2;P2;SDS_P1;SDS_P2;PMS_P1;PMS_P2;Temp;Humidity;BMP_temperature;BMP_pressure;BME280_temperature;BME280_humidity;BME280_pressure;Samples;Min_cycle;Max_cycle;Signal;HPM_P1;HPM_P2
2021/12/29 00:01:27;;;;;;;5.60;1.67;;;;;;;8.84;80.43;97583.97;2619054;54;20537;-65
2021/12/29 00:03:57;;;;;;;5.90;2.05;;;;;;;8.79;80.80;97587.22;2618252;46;20054;-65
2021/12/29 00:06:26;;;;;;;6.28;2.58;;;;;;;8.76;81.35;97590.28;2618754;54;20545;-64
2021/12/29 00:08:58;;;;;;;6.05;2.30;;;;;;;8.77;80.96;97596.34;2618796;54;20053;-65
2021/12/29 00:11:29;;;;;;;5.97;1.90;;;;;;;8.78;80.97;97590.09;2618982;54;20126;-64
2021/12/29 00:14:01;;;;;;;6.03;1.88;;;;;;;8.78;81.01;97595.34;2618795;54;20030;-64
2021/12/29 00:16:34;;;;;;;5.75;1.73;;;;;;;8.76;81.61;97606.09;2618719;54;20034;-64
2021/12/29 00:19:24;;;;;;;5.15;1.85;;;;;;;8.82;81.70;97604.47;2618417;47;20027;-64
2021/12/29 00:21:54;;;;;;;5.53;2.13;;;;;;;8.80;81.54;97603.84;2619143;39;20430;-66
2021/12/29 00:24:23;;;;;;;4.97;1.65;;;;;;;8.77;81.19;97622.69;2617850;47;20030;-65
2021/12/29 00:26:53;;;;;;;6.05;1.67;;;;;;;8.76;81.67;97614.00;2618612;39;20434;-65
2021/12/29 00:29:25;;;;;;;4.72;1.60;;;;;;;8.78;81.15;97611.97;2617867;54;20049;-66
2021/12/29 00:32:15;;;;;;;3.90;1.52;;;;;;;8.79;81.33;97620.69;2618401;54;20057;-64
2021/12/29 00:35:04;;;;;;;4.75;1.90;;;;;;;8.82;80.93;97615.00;2619174;54;20061;-64
2021/12/29 00:37:51;;;;;;;5.28;1.83;;;;;;;8.81;80.68;97634.44;2618816;54;20037;-65
2021/12/29 00:40:41;;;;;;;4.93;1.85;;;;;;;8.85;80.66;97643.53;2618715;54;20593;-65
2021/12/29 00:43:42;;;;;;;5.40;1.48;;;;;;;8.89;80.11;97656.09;2618597;54;20041;-64
2021/12/29 00:46:33;;;;;;;8.05;1.83;;;;;;;8.81;80.27;97647.63;2618480;47;20057;-65
2021/12/29 00:49:03;;;;;;;6.78;2.42;;;;;;;8.85;80.87;97652.25;2619781;54;20526;-65
2021/12/29 00:51:33;;;;;;;3.58;1.25;;;;;;;8.87;80.29;97667.88;2622498;39;20414;-65
2021/12/29 00:54:03;;;;;;;3.88;1.70;;;;;;;8.85;79.93;97654.09;2621402;47;20034;-66
2021/12/29 00:56:33;;;;;;;3.90;1.27;;;;;;;8.86;79.81;97682.88;2621688;54;20050;-64
2021/12/29 00:59:02;;;;;;;6.22;1.63;;;;;;;8.86;79.94;97687.34;2620826;47;20078;-65
2021/12/29 01:01:35;;;;;;;4.68;1.75;;;;;;;8.89;80.34;97692.19;2620902;54;20038;-66
2021/12/29 01:04:05;;;;;;;8.48;1.92;;;;;;;8.82;80.32;97702.75;2620816;54;20031;-64
2021/12/29 01:06:35;;;;;;;6.07;1.70;;;;;;;8.81;80.30;97716.94;2620741;54;20041;-65
2021/12/29 01:09:05;;;;;;;6.55;1.60;;;;;;;8.77;80.66;97705.19;2620215;54;20107;-66
2021/12/29 01:11:34;;;;;;;5.43;1.40;;;;;;;8.74;80.90;97692.44;2619328;54;20038;-65
2021/12/29 01:14:04;;;;;;;5.20;1.73;;;;;;;8.70;81.38;97693.88;2619144;39;20441;-63
2021/12/29 01:16:40;;;;;;;6.50;1.98;;;;;;;8.71;81.27;97706.03;2621300;54;20026;-65
2021/12/29 01:19:14;;;;;;;4.32;1.40;;;;;;;8.73;81.55;97719.00;2623002;54;20045;-66
2021/12/29 01:21:47;;;;;;;3.70;1.08;;;;;;;8.67;81.85;97736.44;2618508;54;20027;-65
2021/12/29 01:24:18;;;;;;;2.17;1.35;;;;;;;8.65;81.53;97739.28;2618942;54;20042;-65
2021/12/29 01:26:48;;;;;;;4.05;1.58;;;;;;;8.62;81.98;97752.88;2617873;54;20039;-65
2021/12/29 01:29:18;;;;;;;4.10;1.65;;;;;;;8.63;82.03;97754.47;2618384;54;20034;-65
2021/12/29 01:31:51;;;;;;;5.93;1.63;;;;;;;8.63;82.14;97764.22;2618370;54;20030;-64
2021/12/29 01:34:21;;;;;;;4.13;1.98;;;;;;;8.66;81.58;97777.00;2618086;54;20035;-65
2021/12/29 01:36:51;;;;;;;2.75;1.25;;;;;;;8.70;81.60;97782.66;2617971;54;20027;-64
2021/12/29 01:39:23;;;;;;;3.08;1.48;;;;;;;8.67;81.70;97781.22;2620984;54;20030;-65
2021/12/29 01:41:57;;;;;;;3.17;1.23;;;;;;;8.66;82.04;97780.44;2620193;54;20026;-65
2021/12/29 01:44:29;;;;;;;6.18;1.73;;;;;;;8.66;81.97;97790.97;2618178;47;20030;-65
2021/12/29 01:47:01;;;;;;;5.32;1.85;;;;;;;8.64;81.86;97797.44;2619584;54;20047;-65
2021/12/29 01:49:31;;;;;;;2.17;1.40;;;;;;;8.62;82.36;97788.94;2619005;39;20399;-65
2021/12/29 01:52:11;;;;;;;5.20;1.60;;;;;;;8.57;82.12;97780.81;2618529;54;20126;-64
2021/12/29 01:54:40;;;;;;;3.35;1.42;;;;;;;8.55;82.78;97782.88;2618097;39;20458;-64
2021/12/29 01:57:13;;;;;;;6.60;1.88;;;;;;;8.54;82.33;97787.34;2618311;54;20041;-65
2021/12/29 01:59:43;;;;;;;3.63;1.50;;;;;;;8.54;82.60;97811.03;2617962;54;20035;-63
2021/12/29 02:02:16;;;;;;;4.40;1.83;;;;;;;8.54;82.88;97818.94;2618680;54;20034;-64
2021/12/29 02:04:48;;;;;;;8.07;2.05;;;;;;;8.54;82.58;97810.22;2621229;54;20082;-65
2021/12/29 02:07:17;;;;;;;6.38;1.65;;;;;;;8.57;82.66;97817.72;2623555;54;20046;-64
2021/12/29 02:09:47;;;;;;;4.95;1.70;;;;;;;8.60;82.39;97819.94;2624568;54;20031;-64
2021/12/29 02:12:19;;;;;;;4.28;1.50;;;;;;;8.59;82.10;97826.22;2623489;47;20034;-66
2021/12/29 02:14:49;;;;;;;6.70;1.92;;;;;;;8.57;81.80;97836.97;2622695;54;20038;-64
2021/12/29 02:17:21;;;;;;;6.72;2.08;;;;;;;8.60;81.87;97838.38;2623906;54;20271;-65
2021/12/29 02:19:52;;;;;;;6.88;1.90;;;;;;;8.62;82.14;97844.28;2624033;54;20035;-65
2021/12/29 02:22:35;;;;;;;5.97;1.92;;;;;;;8.65;81.86;97843.84;2622511;54;20026;-65
2021/12/29 02:25:21;;;;;;;8.10;2.05;;;;;;;8.62;81.34;97852.19;2623124;54;20046;-65
2021/12/29 02:27:52;;;;;;;3.55;1.40;;;;;;;8.65;81.59;97862.28;2622590;54;20390;-64
2021/12/29 02:30:25;;;;;;;4.68;1.60;;;;;;;8.70;80.88;97866.97;2621130;54;20030;-65
2021/12/29 02:33:00;;;;;;;6.95;1.90;;;;;;;8.69;80.93;97876.69;2621346;39;20108;-64
2021/12/29 02:35:31;;;;;;;3.60;1.33;;;;;;;8.70;80.49;97882.78;2620428;54;20074;-65
2021/12/29 02:38:08;;;;;;;4.00;2.17;;;;;;;8.70;80.50;97878.31;2620623;54;20026;-64
2021/12/29 02:40:37;;;;;;;2.97;1.42;;;;;;;8.67;80.41;97876.88;2620838;54;20047;-65
2021/12/29 02:43:07;;;;;;;3.40;1.45;;;;;;;8.69;80.77;97874.03;2620097;54;20026;-65
2021/12/29 02:45:36;;;;;;;2.63;1.30;;;;;;;8.68;80.63;97894.31;2620165;54;20023;-65
2021/12/29 02:48:06;;;;;;;2.72;1.00;;;;;;;8.72;80.52;97900.00;2620496;54;20034;-66
2021/12/29 02:50:36;;;;;;;3.00;1.10;;;;;;;8.70;80.64;97893.31;2620385;54;20034;-65
2021/12/29 02:53:09;;;;;;;4.25;1.10;;;;;;;8.68;80.60;97907.50;2620819;54;20042;-64
2021/12/29 02:55:39;;;;;;;3.83;1.30;;;;;;;8.64;81.12;97897.56;2620762;54;20038;-65
2021/12/29 02:58:09;;;;;;;3.92;1.50;;;;;;;8.62;81.29;97904.88;2620569;54;20063;-65
2021/12/29 03:00:39;;;;;;;5.55;1.67;;;;;;;8.58;81.79;97903.66;2619999;47;20059;-65
2021/12/29 03:03:16;;;;;;;3.47;1.42;;;;;;;8.59;81.68;97907.91;2620650;54;20030;-65
2021/12/29 03:05:47;;;;;;;4.03;1.73;;;;;;;8.57;81.98;97920.44;2620804;54;20038;-64
2021/12/29 03:08:21;;;;;;;5.50;1.63;;;;;;;8.57;81.88;97913.38;2620020;54;20039;-65
2021/12/29 03:10:53;;;;;;;;;;;;;;;8.56;81.78;97924.91;2620424;54;20127;-65
2021/12/29 03:13:23;;;;;;;3.05;1.50;;;;;;;8.59;81.95;97926.34;2620278;54;19945;-65
2021/12/29 03:15:53;;;;;;;6.50;1.63;;;;;;;8.57;82.13;97921.28;2620399;54;20026;-65
2021/12/29 03:18:23;;;;;;;5.22;1.92;;;;;;;8.57;81.68;97917.81;2621241;39;20397;-65
2021/12/29 03:20:53;;;;;;;5.70;1.80;;;;;;;8.61;81.83;97922.50;2621787;46;20034;-64
2021/12/29 03:23:26;;;;;;;5.75;1.77;;;;;;;8.60;81.56;97922.69;2620585;54;20030;-64
2021/12/29 03:25:55;;;;;;;6.32;1.70;;;;;;;8.57;81.74;97913.38;2620094;47;20031;-65
2021/12/29 03:28:27;;;;;;;4.55;1.80;;;;;;;8.60;82.16;97904.25;2620299;47;20034;-64
2021/12/29 03:30:57;;;;;;;5.20;1.45;;;;;;;8.56;81.83;97918.84;2620834;39;20462;-64
2021/12/29 03:33:29;;;;;;;4.93;1.73;;;;;;;8.54;82.68;97912.97;2620574;54;20034;-64
2021/12/29 03:36:02;;;;;;;3.55;1.92;;;;;;;8.50;82.63;97917.81;2620528;54;20119;-65
2021/12/29 03:38:37;;;;;;;10.57;1.83;;;;;;;8.51;83.17;97905.47;2620023;54;20040;-65
2021/12/29 03:41:09;;;;;;;3.72;1.50;;;;;;;8.47;82.93;97920.03;2620033;48;20556;-64
2021/12/29 03:43:39;;;;;;;3.38;1.60;;;;;;;8.54;83.23;97918.22;2620731;54;20038;-64
2021/12/29 03:46:10;;;;;;;5.22;1.77;;;;;;;8.56;83.01;97932.00;2620429;54;20035;-64
2021/12/29 03:48:42;;;;;;;6.10;1.73;;;;;;;8.60;82.56;97941.94;2620339;54;20034;-64
2021/12/29 03:51:12;;;;;;;7.57;1.85;;;;;;;8.60;82.59;97947.19;2620160;47;20031;-65
2021/12/29 03:53:44;;;;;;;4.05;1.27;;;;;;;8.60;82.27;97943.75;2620185;54;20042;-65
2021/12/29 03:56:15;;;;;;;7.30;1.70;;;;;;;8.63;82.16;97953.91;2620147;54;20027;-65
2021/12/29 03:58:45;;;;;;;5.00;1.70;;;;;;;8.65;81.95;97950.06;2620086;39;20444;-65
2021/12/29 04:01:18;;;;;;;5.28;1.83;;;;;;;8.66;81.55;97953.50;2619800;54;20065;-65
2021/12/29 04:03:48;;;;;;;4.18;1.88;;;;;;;8.68;81.31;97959.38;2619971;47;20025;-65
2021/12/29 04:06:19;;;;;;;5.40;1.67;;;;;;;8.65;81.30;97965.88;2619435;54;20065;-65
2021/12/29 04:08:52;;;;;;;2.47;1.48;;;;;;;8.63;81.51;97969.72;2620497;54;20027;-66
2021/12/29 04:11:22;;;;;;;5.10;1.70;;;;;;;8.59;81.46;97973.75;2619960;39;20464;-65
2021/12/29 04:13:51;;;;;;;5.18;1.35;;;;;;;8.64;81.36;97973.97;2620357;54;20026;-64
2021/12/29 04:16:21;;;;;;;6.45;2.10;;;;;;;8.70;81.23;97975.00;2619976;54;20082;-64
2021/12/29 04:21:33;;;;;;;4.57;1.70;;;;;;;8.57;81.64;97973.13;2619479;39;20441;-65
2021/12/29 04:24:06;;;;;;;4.90;2.35;;;;;;;8.56;81.31;97976.78;2618582;54;20046;-65
2021/12/29 04:26:37;;;;;;;3.83;1.50;;;;;;;8.56;81.37;97992.59;2618947;54;20561;-65
2021/12/29 04:29:08;;;;;;;6.03;1.90;;;;;;;8.56;81.92;97998.66;2618716;39;20434;-65
2021/12/29 04:31:38;;;;;;;8.50;1.95;;;;;;;8.50;81.95;97996.84;2618284;54;20030;-65
2021/12/29 04:34:07;;;;;;;5.20;1.73;;;;;;;8.53;82.49;97988.56;2618695;39;20472;-65
2021/12/29 04:36:38;;;;;;;2.83;1.90;;;;;;;8.51;82.50;97995.81;2618336;39;20425;-66
2021/12/29 04:39:11;;;;;;;5.38;1.98;;;;;;;8.50;82.98;98010.00;2619115;54;20038;-65
2021/12/29 04:41:40;;;;;;;7.88;1.88;;;;;;;8.52;82.69;98012.44;2618757;47;20038;-64
2021/12/29 04:44:10;;;;;;;6.18;1.70;;;;;;;8.54;82.21;98021.78;2618437;54;20030;-65
2021/12/29 04:46:44;;;;;;;6.07;1.73;;;;;;;8.53;82.10;98027.22;2619231;54;20049;-65
2021/12/29 04:49:21;;;;;;;6.90;1.90;;;;;;;8.52;81.93;98026.41;2618407;54;20035;-65
2021/12/29 04:51:56;;;;;;;4.68;1.40;;;;;;;8.55;81.50;98026.03;2618690;47;20130;-64
2021/12/29 04:54:29;;;;;;;3.72;1.65;;;;;;;8.56;81.14;98021.56;2619403;47;20037;-65
2021/12/29 04:56:59;;;;;;;4.10;1.75;;;;;;;8.53;80.56;98022.78;2619180;39;20090;-65
2021/12/29 04:59:29;;;;;;;7.20;1.77;;;;;;;8.50;80.65;98020.56;2618722;54;20047;-65
2021/12/29 05:01:59;;;;;;;3.65;1.65;;;;;;;8.54;80.50;98021.78;2619085;54;20057;-65
2021/12/29 05:04:34;;;;;;;5.22;1.50;;;;;;;8.55;80.44;98020.75;2619099;54;20031;-65
2021/12/29 05:09:55;;;;;;;5.07;1.67;;;;;;;8.53;79.98;98024.59;2617843;54;20057;-65
2021/12/29 05:12:24;;;;;;;5.25;1.92;;;;;;;8.53;79.89;98033.34;2619158;51;20070;-65
2021/12/29 05:14:54;;;;;;;4.65;1.75;;;;;;;8.54;80.28;98034.94;2618861;54;20034;-65
2021/12/29 05:17:24;;;;;;;3.10;1.40;;;;;;;8.55;79.98;98038.38;2618717;39;20430;-65
2021/12/29 05:19:54;;;;;;;7.15;1.80;;;;;;;8.56;80.18;98045.28;2618312;54;20071;-64
2021/12/29 05:22:24;;;;;;;3.90;1.40;;;;;;;8.52;80.06;98044.84;2618351;54;20035;-64
2021/12/29 05:24:56;;;;;;;3.88;1.50;;;;;;;8.58;79.71;98057.25;2617539;54;20085;-65
2021/12/29 05:27:25;;;;;;;5.28;1.30;;;;;;;8.60;79.55;98068.38;2618558;54;20044;-65
2021/12/29 05:29:55;;;;;;;5.78;1.42;;;;;;;8.55;79.38;98064.75;2618923;39;20403;-65
2021/12/29 05:32:24;;;;;;;3.88;1.70;;;;;;;8.55;79.60;98067.38;2618453;54;20130;-65
2021/12/29 05:34:54;;;;;;;6.10;1.73;;;;;;;8.57;79.29;98071.44;2618632;54;20097;-65
2021/12/29 05:37:23;;;;;;;4.93;1.83;;;;;;;8.62;79.57;98069.03;2617820;54;20037;-64
2021/12/29 05:39:56;;;;;;;4.90;1.60;;;;;;;8.63;78.97;98061.94;2619326;54;20085;-65
2021/12/29 05:42:25;;;;;;;4.70;1.40;;;;;;;8.65;79.42;98052.00;2619196;54;20054;-64
2021/12/29 05:44:55;;;;;;;3.35;1.23;;;;;;;8.58;78.77;98064.34;2619318;54;20085;-65
2021/12/29 05:47:24;;;;;;;4.13;1.48;;;;;;;8.56;78.94;98061.09;2619007;54;20034;-65
2021/12/29 05:49:54;;;;;;;3.15;1.88;;;;;;;8.55;78.90;98060.28;2619126;54;20082;-65
2021/12/29 05:52:23;;;;;;;4.68;1.38;;;;;;;8.60;79.20;98063.13;2619693;54;20038;-64
2021/12/29 05:54:56;;;;;;;4.75;1.50;;;;;;;8.58;78.50;98061.72;2620709;54;20034;-65
2021/12/29 05:57:25;;;;;;;4.95;1.60;;;;;;;8.61;78.96;98063.94;2620524;54;20110;-65
2021/12/29 05:59:55;;;;;;;6.95;1.55;;;;;;;8.57;78.69;98071.44;2619726;47;20533;-65
2021/12/29 06:02:25;;;;;;;6.55;1.60;;;;;;;8.61;78.67;98063.94;2620667;54;20068;-65
2021/12/29 06:04:55;;;;;;;2.80;1.50;;;;;;;8.59;78.64;98066.78;2621898;54;20553;-65
2021/12/29 06:07:25;;;;;;;4.88;1.60;;;;;;;8.59;78.51;98072.03;2621737;47;20038;-65
2021/12/29 06:09:57;;;;;;;4.78;1.88;;;;;;;8.61;78.13;98075.31;2622261;54;20597;-66
2021/12/29 06:12:27;;;;;;;4.05;1.38;;;;;;;8.61;78.55;98090.28;2621695;54;20026;-65
2021/12/29 06:14:56;;;;;;;4.55;1.50;;;;;;;8.63;77.87;98086.44;2620742;54;20078;-65
2021/12/29 06:17:26;;;;;;;6.15;1.50;;;;;;;8.64;78.15;98105.69;2618992;54;20086;-64
2021/12/29 06:19:56;;;;;;;5.47;1.75;;;;;;;8.64;78.11;98103.88;2619712;54;20038;-65
2021/12/29 06:22:26;;;;;;;6.50;1.45;;;;;;;8.63;78.15;98104.88;2623121;54;20043;-65
2021/12/29 06:24:59;;;;;;;7.43;1.65;;;;;;;8.60;78.29;98104.47;2623853;54;20034;-65
2021/12/29 06:27:31;;;;;;;4.38;1.52;;;;;;;8.63;78.19;98104.09;2623565;54;20031;-65
2021/12/29 06:30:01;;;;;;;3.40;1.27;;;;;;;8.65;78.26;98109.94;2622944;47;20030;-65
2021/12/29 06:32:30;;;;;;;5.75;1.55;;;;;;;8.66;78.33;98111.59;2623146;54;20030;-65
2021/12/29 06:35:00;;;;;;;5.50;1.55;;;;;;;8.62;78.34;98108.53;2623222;54;20529;-66
2021/12/29 06:37:32;;;;;;;9.93;1.77;;;;;;;8.62;78.58;98118.28;2622187;54;20043;-64
2021/12/29 06:40:06;;;;;;;5.85;1.90;;;;;;;8.62;78.96;98115.63;2620334;54;20046;-64
2021/12/29 06:42:36;;;;;;;3.92;1.80;;;;;;;8.63;79.28;98114.63;2619142;54;20035;-65
2021/12/29 06:45:06;;;;;;;2.67;1.75;;;;;;;8.64;78.67;98122.31;2621896;54;20054;-65
2021/12/29 06:47:36;;;;;;;2.80;1.50;;;;;;;8.62;78.96;98134.88;2624261;51;20555;-65
2021/12/29 06:50:08;;;;;;;4.70;1.67;;;;;;;8.62;78.85;98132.25;2619929;47;20038;-65
2021/12/29 06:52:37;;;;;;;2.33;1.30;;;;;;;8.62;78.55;98139.34;2618650;54;20038;-66
2021/12/29 06:55:11;;;;;;;4.40;1.88;;;;;;;8.59;78.61;98143.19;2619263;54;20065;-65
2021/12/29 06:57:41;;;;;;;2.83;1.60;;;;;;;8.60;78.52;98152.69;2619307;39;20417;-65
2021/12/29 07:00:12;;;;;;;3.55;1.73;;;;;;;8.64;78.54;98151.31;2618955;54;20086;-64
2021/12/29 07:02:42;;;;;;;4.47;2.05;;;;;;;8.60;78.74;98155.34;2619870;54;20034;-64
2021/12/29 07:05:12;;;;;;;5.03;1.95;;;;;;;8.61;78.95;98162.25;2622187;54;20073;-65
2021/12/29 07:07:42;;;;;;;4.78;1.83;;;;;;;8.59;79.07;98166.88;2623106;54;20035;-66
2021/12/29 07:10:14;;;;;;;3.40;1.75;;;;;;;8.60;78.73;98175.59;2622338;51;20537;-65
2021/12/29 07:12:44;;;;;;;4.55;1.95;;;;;;;8.59;78.93;98180.06;2622912;54;20549;-66
2021/12/29 07:15:14;;;;;;;4.55;1.80;;;;;;;8.66;78.75;98180.09;2622930;54;20046;-66
2021/12/29 07:17:43;;;;;;;5.03;2.20;;;;;;;8.74;79.00;98187.84;2619296;54;20059;-66
2021/12/29 07:20:13;;;;;;;7.38;2.00;;;;;;;8.72;78.52;98184.59;2618334;47;20047;-65
2021/12/29 07:22:43;;;;;;;5.82;1.80;;;;;;;8.73;78.79;98190.66;2618324;47;20042;-65
2021/12/29 07:25:15;;;;;;;5.53;2.33;;;;;;;8.73;78.86;98188.84;2619214;54;20035;-65
2021/12/29 07:27:45;;;;;;;8.23;2.45;;;;;;;8.75;78.91;98189.47;2619159;39;20436;-65
2021/12/29 07:30:15;;;;;;;6.97;2.65;;;;;;;8.84;78.90;98195.38;2618656;54;20073;-65
2021/12/29 07:32:44;;;;;;;4.72;2.00;;;;;;;8.88;78.90;98184.25;2618072;47;20069;-66
2021/12/29 07:35:14;;;;;;;7.40;3.40;;;;;;;8.93;78.39;98191.56;2618494;54;20577;-65
2021/12/29 07:37:43;;;;;;;7.13;2.42;;;;;;;8.91;78.61;98188.31;2618548;54;20086;-66
2021/12/29 07:40:16;;;;;;;5.22;2.40;;;;;;;8.95;78.22;98194.84;2621602;54;20031;-66
2021/12/29 07:42:46;;;;;;;10.38;2.63;;;;;;;8.94;78.74;98206.38;2624589;54;20038;-65
2021/12/29 07:45:18;;;;;;;7.72;2.10;;;;;;;8.95;78.16;98209.84;2625100;54;20558;-65
2021/12/29 07:47:49;;;;;;;6.85;2.53;;;;;;;8.95;78.43;98212.47;2623474;54;20042;-65
2021/12/29 07:50:21;;;;;;;9.02;2.50;;;;;;;8.95;78.18;98221.19;2622390;54;20034;-65
2021/12/29 07:52:59;;;;;;;8.98;2.88;;;;;;;9.01;78.39;98209.84;2624863;46;20042;-65
2021/12/29 07:55:32;;;;;;;9.75;3.45;;;;;;;8.99;77.93;98222.44;2623387;47;20030;-65
2021/12/29 07:58:01;;;;;;;7.43;2.95;;;;;;;9.03;78.02;98220.22;2624498;54;20054;-65
2021/12/29 08:00:31;;;;;;;10.10;2.90;;;;;;;8.98;77.78;98222.59;2624809;54;20062;-65
2021/12/29 08:03:01;;;;;;;9.10;2.72;;;;;;;8.95;77.68;98225.66;2622236;54;20122;-65
2021/12/29 08:05:30;;;;;;;10.80;2.90;;;;;;;8.90;77.69;98216.50;2624298;54;20041;-65
2021/12/29 08:08:00;;;;;;;10.10;3.15;;;;;;;8.93;77.66;98215.28;2623410;54;20031;-65
2021/12/29 08:10:32;;;;;;;10.57;3.53;;;;;;;8.96;77.59;98232.53;2619170;54;20057;-65
2021/12/29 08:13:03;;;;;;;10.05;3.20;;;;;;;8.96;77.64;98228.09;2619494;39;20450;-65
2021/12/29 08:15:34;;;;;;;8.80;3.40;;;;;;;9.03;77.48;98228.94;2618504;54;20547;-65
2021/12/29 08:18:06;;;;;;;12.40;3.83;;;;;;;9.06;77.05;98217.16;2618286;54;20039;-64
2021/12/29 08:20:36;;;;;;;13.43;3.72;;;;;;;9.11;76.90;98228.75;2618171;54;20022;-65
2021/12/29 08:23:07;;;;;;;13.38;3.42;;;;;;;9.14;76.78;98227.53;2618981;54;20057;-66
2021/12/29 08:25:40;;;;;;;7.45;2.60;;;;;;;9.15;76.62;98231.81;2618991;54;20034;-63
2021/12/29 08:28:10;;;;;;;8.30;2.93;;;;;;;9.17;76.93;98229.78;2618814;54;20066;-64
2021/12/29 08:30:40;;;;;;;8.95;3.25;;;;;;;9.22;77.08;98227.38;2618370;47;20030;-64
2021/12/29 08:33:10;;;;;;;12.07;3.47;;;;;;;9.29;77.02;98232.66;2618246;54;20605;-64
2021/12/29 08:35:39;;;;;;;8.10;3.15;;;;;;;9.28;76.84;98229.22;2618247;39;20447;-65
2021/12/29 08:38:09;;;;;;;12.77;3.67;;;;;;;9.27;76.88;98242.63;2618444;39;20456;-65
2021/12/29 08:40:41;;;;;;;10.77;3.15;;;;;;;9.24;77.02;98238.53;2617909;54;20074;-65
2021/12/29 08:43:12;;;;;;;11.32;3.42;;;;;;;9.26;77.05;98241.78;2617878;47;20026;-65
2021/12/29 08:45:42;;;;;;;10.80;2.78;;;;;;;9.29;76.74;98241.38;2618484;54;20770;-65
2021/12/29 08:48:13;;;;;;;8.95;3.25;;;;;;;9.34;77.04;98238.16;2618052;54;20034;-65
2021/12/29 08:50:43;;;;;;;8.05;3.03;;;;;;;9.31;76.46;98234.09;2617976;54;20027;-65
2021/12/29 13:09:32;;;;;;;8.68;2.80;;;;;;;9.57;80.64;98217.53;2578798;46;20053;-66
2021/12/29 13:12:08;;;;;;;8.77;2.83;;;;;;;9.58;80.89;98224.41;2617681;54;20027;-66
2021/12/29 13:14:38;;;;;;;9.50;4.15;;;;;;;9.64;80.89;98228.09;2618264;54;20019;-67
2021/12/29 13:17:17;;;;;;;;;;;;;;;9.61;80.33;98228.50;2618316;54;20023;-66
2021/12/29 13:19:50;;;;;;;9.48;4.00;;;;;;;9.59;80.29;98233.16;2618337;54;19938;-66
2021/12/29 13:22:25;;;;;;;4.93;2.93;;;;;;;9.60;80.34;98232.97;2618930;39;20446;-66
2021/12/29 13:25:06;;;;;;;8.13;2.35;;;;;;;9.65;80.77;98219.97;2618505;54;20046;-67
2021/12/29 13:27:36;;;;;;;7.25;2.40;;;;;;;9.73;80.68;98220.81;2617987;54;20075;-66
2021/12/29 13:30:11;;;;;;;6.15;2.92;;;;;;;9.71;79.96;98220.19;2618229;54;20042;-67
2021/12/29 13:32:51;;;;;;;5.55;2.50;;;;;;;9.70;80.30;98219.38;2618318;54;20077;-67
2021/12/29 13:35:25;;;;;;;6.10;2.85;;;;;;;9.73;80.07;98237.44;2618976;54;20047;-66
2021/12/29 13:37:58;;;;;;;5.05;2.60;;;;;;;9.78;80.25;98234.19;2618665;54;20030;-65
2021/12/29 13:40:38;;;;;;;7.07;3.70;;;;;;;9.89;79.81;98228.34;2618025;47;20081;-65
2021/12/29 13:43:12;;;;;;;6.47;3.13;;;;;;;9.92;79.63;98231.38;2619065;54;20612;-65
2021/12/29 13:45:42;;;;;;;6.90;3.40;;;;;;;9.96;80.08;98231.81;2618550;54;20042;-66
2021/12/29 13:48:18;;;;;;;6.65;3.33;;;;;;;9.88;79.43;98246.00;2618519;54;20034;-66
2021/12/29 13:51:02;;;;;;;3.45;2.15;;;;;;;9.91;79.30;98250.88;2618908;54;20061;-65
2021/12/29 13:53:32;;;;;;;4.00;1.80;;;;;;;9.89;79.24;98244.19;2618390;54;20026;-65
2021/12/29 13:56:13;;;;;;;2.90;2.00;;;;;;;9.89;79.26;98236.25;2618317;54;20572;-66
2021/12/29 13:58:44;;;;;;;5.20;2.30;;;;;;;9.89;79.77;98228.34;2618942;54;20055;-65
2021/12/29 14:01:14;;;;;;;5.63;2.28;;;;;;;9.95;79.59;98221.41;2619506;54;20038;-66
2021/12/29 14:03:43;;;;;;;5.28;2.42;;;;;;;9.96;79.48;98210.69;2619106;54;20027;-66
2021/12/29 14:06:13;;;;;;;2.22;1.83;;;;;;;9.90;79.75;98222.84;2619399;54;20031;-66
2021/12/29 14:08:43;;;;;;;4.47;2.15;;;;;;;9.89;79.79;98218.59;2618490;54;20130;-66
2021/12/29 14:11:16;;;;;;;3.83;1.83;;;;;;;9.88;79.53;98216.97;2619441;54;20077;-66
2021/12/29 14:13:49;;;;;;;3.67;2.20;;;;;;;9.90;79.68;98233.41;2619328;54;20069;-66
2021/12/29 14:16:20;;;;;;;4.10;1.90;;;;;;;9.92;79.96;98236.66;2619458;54;20039;-66
2021/12/29 14:18:56;;;;;;;3.17;2.03;;;;;;;9.97;79.95;98217.56;2620095;54;20121;-66
2021/12/29 14:21:29;;;;;;;6.35;2.67;;;;;;;10.04;79.52;98207.00;2619685;54;20038;-65
2021/12/29 14:24:00;;;;;;;8.67;3.40;;;;;;;10.07;79.83;98222.44;2619847;54;20042;-66
2021/12/29 14:26:38;;;;;;;3.25;2.17;;;;;;;10.06;79.64;98236.66;2619947;54;20030;-65
2021/12/29 14:29:08;;;;;;;4.07;2.20;;;;;;;9.99;79.42;98241.13;2619890;31;20518;-66
2021/12/29 14:31:40;;;;;;;6.10;2.42;;;;;;;9.92;79.53;98247.22;2618865;54;20077;-65
2021/12/29 14:34:13;;;;;;;3.45;2.50;;;;;;;9.86;79.75;98250.66;2618616;54;20126;-66
2021/12/29 14:36:45;;;;;;;6.68;3.72;;;;;;;9.84;80.07;98239.50;2619199;39;20445;-65
2021/12/29 14:39:16;;;;;;;3.67;2.20;;;;;;;9.84;80.03;98234.22;2619048;54;20043;-65
2021/12/29 14:41:49;;;;;;;4.25;2.40;;;;;;;9.77;80.21;98225.47;2619393;54;20069;-65
2021/12/29 14:44:19;;;;;;;5.43;2.53;;;;;;;9.79;80.69;98235.81;2622058;47;20063;-65
2021/12/29 14:46:59;;;;;;;5.90;3.33;;;;;;;9.80;80.43;98234.84;2622186;39;20490;-67
2021/12/29 14:49:30;;;;;;;6.22;3.95;;;;;;;9.80;80.24;98227.72;2618965;54;20027;-67
2021/12/29 14:52:01;;;;;;;6.72;4.60;;;;;;;9.82;80.56;98228.31;2619200;54;20038;-66
2021/12/29 14:54:36;;;;;;;10.15;5.13;;;;;;;9.89;80.43;98225.69;2619023;54;20538;-66
2021/12/29 14:57:12;;;;;;;4.63;2.03;;;;;;;9.90;80.44;98216.75;2618519;54;20042;-66
2021/12/29 14:59:43;;;;;;;8.32;3.03;;;;;;;9.80;80.44;98224.28;2619197;54;20038;-67
2021/12/29 15:02:16;;;;;;;4.07;2.50;;;;;;;9.75;81.12;98222.22;2618119;47;20038;-66
2021/12/29 15:04:59;;;;;;;8.88;3.67;;;;;;;9.69;80.97;98223.03;2618189;54;20042;-66
2021/12/29 15:07:29;;;;;;;3.05;1.83;;;;;;;9.68;81.44;98224.84;2618100;47;20027;-66
2021/12/29 15:10:01;;;;;;;2.53;1.77;;;;;;;9.68;81.65;98226.69;2618905;54;20118;-65
2021/12/29 15:12:37;;;;;;;2.13;1.55;;;;;;;9.65;81.30;98219.97;2619073;54;20018;-65
2021/12/29 15:15:16;;;;;;;4.47;2.17;;;;;;;9.65;82.00;98219.97;2618681;54;20042;-66
2021/12/29 15:18:02;;;;;;;2.00;1.60;;;;;;;9.68;81.73;98224.84;2618556;54;20551;-66
2021/12/29 15:20:34;;;;;;;4.25;2.45;;;;;;;9.72;82.06;98211.25;2618754;39;20498;-67
2021/12/29 15:23:06;;;;;;;2.88;1.85;;;;;;;9.75;81.60;98205.56;2619415;54;20053;-66
2021/12/29 15:25:37;;;;;;;5.68;2.03;;;;;;;9.76;82.05;98213.31;2618126;47;20073;-66
2021/12/29 15:28:10;;;;;;;7.30;4.40;;;;;;;9.80;82.11;98196.03;2618771;54;20039;-67
2021/12/29 15:30:42;;;;;;;2.67;1.83;;;;;;;9.77;81.57;98198.28;2618896;54;20039;-65
2021/12/29 15:33:13;;;;;;;8.02;3.40;;;;;;;9.74;81.77;98207.41;2618720;54;20022;-66
2021/12/29 15:35:45;;;;;;;6.13;4.97;;;;;;;9.76;82.14;98200.09;2618795;54;20567;-66
2021/12/29 15:38:15;;;;;;;3.30;2.67;;;;;;;9.77;82.17;98201.72;2618699;54;20031;-66
2021/12/29 15:40:45;;;;;;;3.65;2.53;;;;;;;9.74;82.02;98194.19;2618784;39;20465;-67
2021/12/29 15:43:18;;;;;;;21.90;12.93;;;;;;;9.74;82.38;98188.09;2618185;54;20074;-66
2021/12/29 15:45:47;;;;;;;3.25;2.47;;;;;;;9.76;82.21;98186.91;2618785;54;20031;-68
2021/12/29 15:48:17;;;;;;;2.60;1.50;;;;;;;9.81;82.20;98181.00;2618982;54;20600;-66
2021/12/29 15:50:47;;;;;;;4.15;2.88;;;;;;;9.82;82.35;98180.00;2622051;39;20338;-67
2021/12/29 15:53:17;;;;;;;23.90;12.55;;;;;;;9.78;82.65;98184.84;2624588;54;20046;-67
2021/12/29 15:55:47;;;;;;;5.88;3.90;;;;;;;9.82;82.39;98194.00;2624011;54;20023;-67
2021/12/29 15:58:20;;;;;;;4.30;3.47;;;;;;;9.78;82.21;98189.34;2624810;54;20050;-67
2021/12/29 16:00:51;;;;;;;1.58;1.45;;;;;;;9.77;82.60;98170.03;2623422;54;20097;-67
2021/12/29 16:03:22;;;;;;;3.38;2.75;;;;;;;9.79;82.96;98173.28;2624351;54;20129;-66
2021/12/29 16:05:51;;;;;;;2.92;2.42;;;;;;;9.76;83.01;98173.72;2622478;54;20030;-66
2021/12/29 16:08:21;;;;;;;2.95;1.65;;;;;;;9.72;82.78;98177.75;2618714;54;20077;-66
2021/12/29 16:10:51;;;;;;;1.67;1.40;;;;;;;9.63;83.13;98176.31;2618953;54;20030;-66
2021/12/29 16:13:23;;;;;;;1.55;1.17;;;;;;;9.64;83.55;98189.31;2619716;31;20519;-64
2021/12/29 16:15:52;;;;;;;6.60;3.53;;;;;;;9.64;83.86;98191.97;2620883;39;20448;-66
2021/12/29 16:18:22;;;;;;;2.30;1.73;;;;;;;9.60;83.82;98209.22;2619171;54;20157;-66
2021/12/29 16:20:51;;;;;;;13.90;8.25;;;;;;;9.58;84.19;98190.13;2618800;54;20074;-66
2021/12/29 16:23:21;;;;;;;2.13;1.90;;;;;;;9.58;84.00;98189.31;2621443;54;20564;-65
2021/12/29 16:25:51;;;;;;;2.72;1.60;;;;;;;9.52;84.44;98177.75;2620432;54;20619;-66